メキシコシティ の空港の天気 - METARとTAF

メキシコ・シティ国際空港 ( MMMX / MEX ) - メキシコ メキシコシティ
飛行場実況気象(Metar)
観測時間01/19 18:49 CST (01/20 00:49 UTC)
風向・風速南東 4m/s
視程10km以上
天気現象
全天の8割程度の雲 雲底高度 6710m
気温18℃
湿度34%
気圧1023hPa
METARMMMX 200049Z 13008KT 12SM BKN220 18/02 A3020 NOSIG RMK 8/008
過去の天気等 Google飛行場航空写真 Wunderground天気予報

過去48時間のMETAR

飛行場予報(TAF)
発表時間: 1/19 17:16 CST (1/19 23:16 UTC)
予報対象時間: 19日18時 CST ~ 21日0時 CST
風向・風速南南東 5m/s 瞬間風速 10m/s
視程10km以上
全天の4割程度の雲 雲底高度 610m
全天の8割程度の雲 雲底高度 6,710m
19日20時 CST ~ 19日21時 CST に徐々に
風向・風速南西 5m/s
全天の8割程度の雲 雲底高度 6,710m
20日6時 CST から
風向・風速南南西 8m/s
視程10km以上
全天の4割程度の雲 雲底高度 6,710m
20日12時 CST ~ 20日13時 CST に徐々に
風向・風速西南西 8m/s 瞬間風速 13m/s
20日21時 CST から
風向・風速西南西 8m/s
視程10km以上
全天の4割程度の雲 雲底高度 6,710m
TAF MMMX 192316Z 2000/2106 15010G20KT P6SM SCT020 BKN220 TX24/2021Z TN09/2012Z
BECMG 2002/2003 23010KT BKN220
FM201200 20015KT P6SM SCT220
BECMG 2018/2019 25015G25KT
FM210300 24015KT P6SM SCT220